createdAt,value
2022-07-29T00:00:36.555Z,74.87
2022-07-29T00:01:36.559Z,74.97
2022-07-29T00:02:36.619Z,75.17
2022-07-29T00:03:36.562Z,75.27
2022-07-29T00:04:36.548Z,75.17
2022-07-29T00:05:36.517Z,75.07
2022-07-29T00:06:36.478Z,74.46
2022-07-29T00:07:36.476Z,74.57
2022-07-29T00:08:36.460Z,74.66
2022-07-29T00:09:50.608Z,74.57
2022-07-29T00:10:37.450Z,74.87
2022-07-29T00:11:36.478Z,76.08
2022-07-29T00:12:36.415Z,75.68
2022-07-29T00:13:36.479Z,74.87
2022-07-29T00:14:36.420Z,76.08
2022-07-29T00:15:36.369Z,76.08
2022-07-29T00:16:36.459Z,76.39
2022-07-29T00:17:36.457Z,75.17
2022-07-29T00:18:36.349Z,76.48
2022-07-29T00:19:36.338Z,75.68
2022-07-29T00:20:36.312Z,76.18
2022-07-29T00:21:36.317Z,76.48
2022-07-29T00:22:36.292Z,75.41
2022-07-29T00:23:36.893Z,75.68
2022-07-29T00:24:36.317Z,74.97
2022-07-29T00:25:36.283Z,76.39
2022-07-29T00:26:36.253Z,76.28
2022-07-29T00:27:36.251Z,76.39
2022-07-29T00:28:36.235Z,75.37
2022-07-29T00:29:36.225Z,76.08
2022-07-29T00:30:36.200Z,75.48
2022-07-29T00:31:36.318Z,75.71
2022-07-29T00:32:36.172Z,76.42
2022-07-29T00:33:36.221Z,76.93
2022-07-29T00:34:36.190Z,76.42
2022-07-29T00:35:36.162Z,76.59
2022-07-29T00:36:36.132Z,77.03
2022-07-29T00:37:36.123Z,76.42
2022-07-29T00:38:36.109Z,76.22
2022-07-29T00:39:36.105Z,76.62
2022-07-29T00:40:36.114Z,76.12
2022-07-29T00:41:36.148Z,76.52
2022-07-29T00:42:36.090Z,76.42
2022-07-29T00:43:36.049Z,75.92
2022-07-29T00:44:36.040Z,76.22
2022-07-29T00:45:36.045Z,76.32
2022-07-29T00:46:36.109Z,76.82
2022-07-29T00:47:36.083Z,76.72
2022-07-29T00:48:36.047Z,76.62
2022-07-29T00:49:35.986Z,76.82
2022-07-29T00:50:35.995Z,76.52
2022-07-29T00:51:36.005Z,76.62
2022-07-29T00:52:35.979Z,76.42
2022-07-29T00:53:35.978Z,76.12
2022-07-29T00:54:43.807Z,76.52
2022-07-29T00:55:36.928Z,76.52
2022-07-29T00:56:35.923Z,76.32
2022-07-29T00:57:35.917Z,76.52
2022-07-29T00:58:35.929Z,76.62
2022-07-29T00:59:35.886Z,76.72
2022-07-29T01:00:35.927Z,76.82
2022-07-29T01:01:35.948Z,76.72
2022-07-29T01:02:35.875Z,76.62
2022-07-29T01:03:35.838Z,76.62
2022-07-29T01:04:35.880Z,76.12
2022-07-29T01:05:50.811Z,76.12
2022-07-29T01:06:36.776Z,76.32
2022-07-29T01:07:35.772Z,76.12
2022-07-29T01:08:35.762Z,76.93
2022-07-29T01:09:45.577Z,76.97
2022-07-29T01:10:36.766Z,77.17
2022-07-29T01:11:35.849Z,77.77
2022-07-29T01:12:35.765Z,77.97
2022-07-29T01:13:35.707Z,78.38
2022-07-29T01:14:35.731Z,78.08
2022-07-29T01:15:35.714Z,78.58
2022-07-29T01:16:35.822Z,78.48
2022-07-29T01:17:35.669Z,78.88
2022-07-29T01:18:35.664Z,78.68
2022-07-29T01:19:35.742Z,78.48
2022-07-29T01:20:35.643Z,78.48
2022-07-29T01:21:35.625Z,78.52
2022-07-29T01:22:35.642Z,79.08
2022-07-29T01:23:35.588Z,79.02
2022-07-29T01:24:35.708Z,79.33
2022-07-29T01:25:35.589Z,79.22
2022-07-29T01:26:35.613Z,79.13
2022-07-29T01:27:35.555Z,79.22
2022-07-29T01:28:35.569Z,79.63
2022-07-29T01:29:36.003Z,79.63
2022-07-29T01:30:35.522Z,79.33
2022-07-29T01:31:36.602Z,79.63
2022-07-29T01:32:35.504Z,79.63
2022-07-29T01:33:35.491Z,79.63
2022-07-29T01:34:35.479Z,79.02
2022-07-29T01:35:35.509Z,79.63
2022-07-29T01:36:35.524Z,79.13
2022-07-29T01:37:35.465Z,79.53
2022-07-29T01:38:35.432Z,79.73
2022-07-29T01:39:35.415Z,80.04
2022-07-29T01:40:35.422Z,79.77
2022-07-29T01:41:35.400Z,79.87
2022-07-29T01:42:35.397Z,80.07
2022-07-29T01:43:35.377Z,80.27
2022-07-29T01:44:35.373Z,80.47
2022-07-29T01:45:35.351Z,80.38
2022-07-29T01:46:35.426Z,80.38
2022-07-29T01:47:35.801Z,80.27
2022-07-29T01:48:35.346Z,80.27
2022-07-29T01:49:35.308Z,80.38
2022-07-29T01:50:35.351Z,79.97
2022-07-29T01:51:35.300Z,79.97
2022-07-29T01:52:35.275Z,79.77
2022-07-29T01:53:38.157Z,80.01
2022-07-29T01:54:35.251Z,80.01
2022-07-29T01:55:35.295Z,80.38
2022-07-29T01:56:35.242Z,80.01
2022-07-29T01:57:35.217Z,79.91
2022-07-29T01:58:35.192Z,79.80
2022-07-29T01:59:35.190Z,79.91
2022-07-29T02:00:35.172Z,79.80
2022-07-29T02:01:35.250Z,80.72
2022-07-29T02:02:35.160Z,79.71
2022-07-29T02:03:35.137Z,80.41
2022-07-29T02:04:35.213Z,80.52
2022-07-29T02:05:35.119Z,80.21
2022-07-29T02:06:35.114Z,79.71
2022-07-29T02:07:35.126Z,79.91
2022-07-29T02:08:35.090Z,79.80
2022-07-29T02:09:35.081Z,79.30
2022-07-29T02:10:35.129Z,79.80
2022-07-29T02:11:35.064Z,80.72
2022-07-29T02:12:35.031Z,80.41
2022-07-29T02:13:35.113Z,80.52
2022-07-29T02:14:35.017Z,80.52
2022-07-29T02:15:35.015Z,80.41
2022-07-29T02:16:35.103Z,80.92
2022-07-29T02:17:35.050Z,80.52
2022-07-29T02:18:34.975Z,80.41
2022-07-29T02:19:35.091Z,80.52
2022-07-29T02:20:34.947Z,80.52
2022-07-29T02:21:34.950Z,80.62
2022-07-29T02:22:34.947Z,80.11
2022-07-29T02:23:50.676Z,80.41
2022-07-29T02:24:36.009Z,80.21
2022-07-29T02:25:38.080Z,80.11
2022-07-29T02:26:34.897Z,80.11
2022-07-29T02:27:34.928Z,79.71
2022-07-29T02:28:34.874Z,80.31
2022-07-29T02:29:34.851Z,80.62
2022-07-29T02:30:34.877Z,80.52
2022-07-29T02:31:34.903Z,80.41
2022-07-29T02:32:34.841Z,80.52
2022-07-29T02:33:34.804Z,81.23
2022-07-29T02:34:34.804Z,80.92
2022-07-29T02:35:35.125Z,81.23
2022-07-29T02:36:34.772Z,80.52
2022-07-29T02:37:34.771Z,81.12
2022-07-29T02:38:34.766Z,81.43
2022-07-29T02:39:34.732Z,81.52
2022-07-29T02:40:34.730Z,81.23
2022-07-29T02:41:34.766Z,80.92
2022-07-29T02:42:34.706Z,81.23
2022-07-29T02:43:34.720Z,81.43
2022-07-29T02:44:35.051Z,81.32
2022-07-29T02:45:34.690Z,81.23
2022-07-29T02:46:34.694Z,81.12
2022-07-29T02:47:41.424Z,81.37
2022-07-29T02:48:35.854Z,81.52
2022-07-29T02:49:34.619Z,81.52
2022-07-29T02:50:34.621Z,80.82
2022-07-29T02:51:41.380Z,80.41
2022-07-29T02:52:35.604Z,80.62
2022-07-29T02:53:34.595Z,81.43
2022-07-29T02:54:34.577Z,81.73
2022-07-29T02:55:34.570Z,81.73
2022-07-29T02:56:34.551Z,81.63
2022-07-29T02:57:34.534Z,81.16
2022-07-29T02:58:34.535Z,81.87
2022-07-29T02:59:34.531Z,81.23
2022-07-29T03:00:34.500Z,82.14
2022-07-29T03:01:34.718Z,81.52
2022-07-29T03:02:34.486Z,81.43
2022-07-29T03:03:34.454Z,81.12
2022-07-29T03:04:34.487Z,81.12
2022-07-29T03:05:34.486Z,81.32
2022-07-29T03:06:38.699Z,81.32
2022-07-29T03:07:34.414Z,81.23
2022-07-29T03:08:34.412Z,81.63
2022-07-29T03:09:34.403Z,81.32
2022-07-29T03:10:34.384Z,81.23
2022-07-29T03:11:42.202Z,80.82
2022-07-29T03:12:35.466Z,80.52
2022-07-29T03:13:34.367Z,81.12
2022-07-29T03:14:34.380Z,81.12
2022-07-29T03:15:34.323Z,81.12
2022-07-29T03:16:39.362Z,81.63
2022-07-29T03:17:35.319Z,80.21
2022-07-29T03:18:34.306Z,80.11
2022-07-29T03:19:34.287Z,80.52
2022-07-29T03:20:34.271Z,80.11
2022-07-29T03:21:34.264Z,80.47
2022-07-29T03:22:34.316Z,80.11
2022-07-29T03:23:36.787Z,80.18
2022-07-29T03:24:34.247Z,80.31
2022-07-29T03:25:34.234Z,79.87
2022-07-29T03:26:34.205Z,79.57
2022-07-29T03:27:34.199Z,79.67
2022-07-29T03:28:34.211Z,79.57
2022-07-29T03:29:34.607Z,79.16
2022-07-29T03:30:34.240Z,79.36
2022-07-29T03:31:34.189Z,79.16
2022-07-29T03:32:34.200Z,79.77
2022-07-29T03:33:34.215Z,80.38
2022-07-29T03:34:34.123Z,79.77
2022-07-29T03:35:34.107Z,80.07
2022-07-29T03:36:34.091Z,80.47
2022-07-29T03:37:34.076Z,79.67
2022-07-29T03:38:34.083Z,79.87
2022-07-29T03:39:34.070Z,79.97
2022-07-29T03:40:34.082Z,79.87
2022-07-29T03:41:34.048Z,80.38
2022-07-29T03:42:34.564Z,79.77
2022-07-29T03:43:34.102Z,79.67
2022-07-29T03:44:34.027Z,79.87
2022-07-29T03:45:33.997Z,79.46
2022-07-29T03:46:34.089Z,79.06
2022-07-29T03:47:45.193Z,79.16
2022-07-29T03:48:34.955Z,79.06
2022-07-29T03:49:33.981Z,78.96
2022-07-29T03:50:34.027Z,79.26
2022-07-29T03:51:34.462Z,78.96
2022-07-29T03:52:33.914Z,78.75
2022-07-29T03:53:33.906Z,78.62
2022-07-29T03:54:33.931Z,79.02
2022-07-29T03:55:33.943Z,78.92
2022-07-29T03:56:33.889Z,79.13
2022-07-29T03:57:33.877Z,79.26
2022-07-29T03:58:33.857Z,78.66
2022-07-29T03:59:33.864Z,78.35
2022-07-29T04:00:33.813Z,78.66
2022-07-29T04:01:33.903Z,78.75
2022-07-29T04:02:33.934Z,78.96
2022-07-29T04:03:33.822Z,78.52
2022-07-29T04:04:33.802Z,78.82
2022-07-29T04:05:33.768Z,78.62
2022-07-29T04:06:33.751Z,78.62
2022-07-29T04:07:33.744Z,78.72
2022-07-29T04:08:33.732Z,78.42
2022-07-29T04:09:33.752Z,78.31
2022-07-29T04:10:34.102Z,78.35
2022-07-29T04:11:33.693Z,78.05
2022-07-29T04:12:34.684Z,77.81
2022-07-29T04:13:33.740Z,78.52
2022-07-29T04:14:33.700Z,78.82
2022-07-29T04:15:33.764Z,78.31
2022-07-29T04:16:33.682Z,78.42
2022-07-29T04:17:33.633Z,78.42
2022-07-29T04:18:33.616Z,78.11
2022-07-29T04:19:33.630Z,77.91
2022-07-29T04:20:33.620Z,77.91
2022-07-29T04:21:33.596Z,77.91
2022-07-29T04:22:33.580Z,78.11
2022-07-29T04:23:33.570Z,78.21
2022-07-29T04:24:33.588Z,78.31
2022-07-29T04:25:33.538Z,78.52
2022-07-29T04:26:33.532Z,78.38
2022-07-29T04:27:33.588Z,78.52
2022-07-29T04:28:33.499Z,78.52
2022-07-29T04:29:33.518Z,78.78
2022-07-29T04:30:33.494Z,78.17
2022-07-29T04:31:33.589Z,77.87
2022-07-29T04:32:33.566Z,77.97
2022-07-29T04:33:33.449Z,77.97
2022-07-29T04:34:33.469Z,77.67
2022-07-29T04:35:38.093Z,78.28
2022-07-29T04:36:34.428Z,78.48
2022-07-29T04:37:33.431Z,78.28
2022-07-29T04:38:33.387Z,78.78
2022-07-29T04:39:33.421Z,78.88
2022-07-29T04:40:33.457Z,79.29
2022-07-29T04:41:33.821Z,78.99
2022-07-29T04:42:33.337Z,78.99
2022-07-29T04:43:36.772Z,79.39
2022-07-29T04:44:33.334Z,78.48
2022-07-29T04:45:34.310Z,78.38
2022-07-29T04:46:33.376Z,79.29
2022-07-29T04:47:33.307Z,78.99
2022-07-29T04:48:33.269Z,78.58
2022-07-29T04:49:33.351Z,78.48
2022-07-29T04:50:33.246Z,78.28
2022-07-29T04:51:33.231Z,78.85
2022-07-29T04:52:33.215Z,79.15
2022-07-29T04:53:33.219Z,79.08
2022-07-29T04:54:33.233Z,78.95
2022-07-29T04:55:33.186Z,79.69
2022-07-29T04:56:33.202Z,80.36
2022-07-29T04:57:33.189Z,80.16
2022-07-29T04:58:33.147Z,80.26
2022-07-29T04:59:33.159Z,79.69
2022-07-29T05:00:33.726Z,80.06
2022-07-29T05:01:33.221Z,80.00
2022-07-29T05:02:33.186Z,79.90
2022-07-29T05:03:33.182Z,79.79
2022-07-29T05:04:33.141Z,79.49
2022-07-29T05:05:33.100Z,79.25
2022-07-29T05:06:33.068Z,79.15
2022-07-29T05:07:33.056Z,78.75
2022-07-29T05:08:33.036Z,78.85
2022-07-29T05:09:33.053Z,78.64
2022-07-29T05:10:33.060Z,77.23
2022-07-29T05:11:33.005Z,77.73
2022-07-29T05:12:32.988Z,77.84
2022-07-29T05:13:46.061Z,78.64
2022-07-29T05:14:34.016Z,78.24
2022-07-29T05:15:32.981Z,77.60
2022-07-29T05:16:32.947Z,78.50
2022-07-29T05:17:32.981Z,78.71
2022-07-29T05:18:32.922Z,78.61
2022-07-29T05:19:32.923Z,78.41
2022-07-29T05:20:32.898Z,77.70
2022-07-29T05:21:32.889Z,77.80
2022-07-29T05:22:32.879Z,76.69
2022-07-29T05:23:32.912Z,76.79
2022-07-29T05:24:32.880Z,76.65
2022-07-29T05:25:42.915Z,76.59
2022-07-29T05:26:33.836Z,76.15
2022-07-29T05:27:32.838Z,76.25
2022-07-29T05:28:32.838Z,76.35
2022-07-29T05:29:44.775Z,77.06
2022-07-29T05:30:33.851Z,76.86
2022-07-29T05:31:32.771Z,76.35
2022-07-29T05:32:32.757Z,76.21
2022-07-29T05:33:35.198Z,76.51
2022-07-29T05:34:32.737Z,76.51
2022-07-29T05:35:32.781Z,76.65
2022-07-29T05:36:32.716Z,75.91
2022-07-29T05:37:32.703Z,76.42
2022-07-29T05:38:32.692Z,76.62
2022-07-29T05:39:47.337Z,76.72
2022-07-29T05:40:33.681Z,76.31
2022-07-29T05:41:32.740Z,75.40
2022-07-29T05:42:32.645Z,75.10
2022-07-29T05:43:32.634Z,74.69
2022-07-29T05:44:32.641Z,76.01
2022-07-29T05:45:32.615Z,76.11
2022-07-29T05:46:32.622Z,75.40
2022-07-29T05:47:32.625Z,74.69
2022-07-29T05:48:32.582Z,74.49
2022-07-29T05:49:32.677Z,74.16
2022-07-29T05:50:32.560Z,74.49
2022-07-29T05:51:32.570Z,74.19
2022-07-29T05:52:32.526Z,74.36
2022-07-29T05:53:32.508Z,74.26
2022-07-29T05:54:32.528Z,74.46
2022-07-29T05:55:32.493Z,73.55
2022-07-29T05:56:32.480Z,73.55
2022-07-29T05:57:32.466Z,72.95
2022-07-29T05:58:32.469Z,73.25
2022-07-29T05:59:32.465Z,73.45
2022-07-29T06:00:32.440Z,74.26
2022-07-29T06:01:32.450Z,74.43
2022-07-29T06:02:32.414Z,74.16
2022-07-29T06:03:32.395Z,73.22
2022-07-29T06:04:32.435Z,73.35
2022-07-29T06:05:32.371Z,72.61
2022-07-29T06:06:32.364Z,73.01
2022-07-29T06:07:32.354Z,73.82
2022-07-29T06:08:32.341Z,73.11
2022-07-29T06:09:36.067Z,73.22
2022-07-29T06:10:32.314Z,72.81
2022-07-29T06:11:32.310Z,72.81
2022-07-29T06:12:32.298Z,73.28
2022-07-29T06:13:32.289Z,73.52
2022-07-29T06:14:32.291Z,71.87
2022-07-29T06:15:32.258Z,71.26
2022-07-29T06:16:32.367Z,72.07
2022-07-29T06:17:32.242Z,72.88
2022-07-29T06:18:32.247Z,73.79
2022-07-29T06:19:32.241Z,73.08
2022-07-29T06:20:32.663Z,72.94
2022-07-29T06:21:32.198Z,72.34
2022-07-29T06:22:32.180Z,71.53
2022-07-29T06:23:32.175Z,71.13
2022-07-29T06:24:32.182Z,71.03
2022-07-29T06:25:32.147Z,70.22
2022-07-29T06:26:35.294Z,70.50
2022-07-29T06:27:33.130Z,70.73
2022-07-29T06:28:32.125Z,71.00
2022-07-29T06:29:32.119Z,72.91
2022-07-29T06:30:32.177Z,71.77
2022-07-29T06:31:32.082Z,69.76
2022-07-29T06:32:32.073Z,73.88
2022-07-29T06:33:32.062Z,76.06
2022-07-29T06:34:32.062Z,77.97
2022-07-29T06:35:41.801Z,75.96
2022-07-29T06:36:33.041Z,72.07
2022-07-29T06:37:32.017Z,69.82
2022-07-29T06:38:34.421Z,73.65
2022-07-29T06:39:33.023Z,74.95
2022-07-29T06:40:31.981Z,74.15
2022-07-29T06:41:31.985Z,77.17
2022-07-29T06:42:31.954Z,78.11
2022-07-29T06:43:31.949Z,78.58
2022-07-29T06:44:31.950Z,76.50
2022-07-29T06:45:31.929Z,79.22
2022-07-29T06:46:31.955Z,80.02
2022-07-29T06:47:31.900Z,81.33
2022-07-29T06:48:31.898Z,82.34
2022-07-29T06:49:31.994Z,81.73
2022-07-29T06:50:31.869Z,82.48
2022-07-29T06:51:31.856Z,82.84
2022-07-29T06:52:31.843Z,82.98
2022-07-29T06:53:31.827Z,79.86
2022-07-29T06:54:31.838Z,81.17
2022-07-29T06:55:31.811Z,83.08
2022-07-29T06:56:31.859Z,81.17
2022-07-29T06:57:31.790Z,81.77
2022-07-29T06:58:31.775Z,83.08
2022-07-29T06:59:35.613Z,83.18
2022-07-29T07:00:31.763Z,82.51
2022-07-29T07:01:31.775Z,77.75
2022-07-29T07:02:31.841Z,77.34
2022-07-29T07:03:31.722Z,80.66
2022-07-29T07:04:31.736Z,82.28
2022-07-29T07:05:31.702Z,82.58
2022-07-29T07:06:31.689Z,80.66
2022-07-29T07:07:31.674Z,79.39
2022-07-29T07:08:31.666Z,77.04
2022-07-29T07:09:40.345Z,79.76
2022-07-29T07:10:32.639Z,81.07
2022-07-29T07:11:31.632Z,80.97
2022-07-29T07:12:31.616Z,80.93
2022-07-29T07:13:31.619Z,81.43
2022-07-29T07:14:31.609Z,82.34
2022-07-29T07:15:39.370Z,82.64
2022-07-29T07:16:32.925Z,82.14
2022-07-29T07:17:31.572Z,82.04
2022-07-29T07:18:31.552Z,80.32
2022-07-29T07:19:31.555Z,80.83
2022-07-29T07:20:31.526Z,78.11
2022-07-29T07:21:31.624Z,74.58
2022-07-29T07:22:34.533Z,74.95
2022-07-29T07:23:32.504Z,78.38
2022-07-29T07:24:31.496Z,78.07
2022-07-29T07:25:31.479Z,76.26
2022-07-29T07:26:31.461Z,74.52
2022-07-29T07:27:31.453Z,72.41
2022-07-29T07:28:31.438Z,77.29
2022-07-29T07:29:31.439Z,78.00
2022-07-29T07:30:31.414Z,77.83
2022-07-29T07:31:31.540Z,73.78
2022-07-29T07:32:31.394Z,70.56
2022-07-29T07:33:31.389Z,73.38
2022-07-29T07:34:31.401Z,72.67
2022-07-29T07:35:31.364Z,73.04
2022-07-29T07:36:31.362Z,74.24
2022-07-29T07:37:31.345Z,75.75
2022-07-29T07:38:31.322Z,74.15
2022-07-29T07:39:31.338Z,77.66
2022-07-29T07:40:31.302Z,76.96
2022-07-29T07:41:32.570Z,77.86
2022-07-29T07:42:31.279Z,73.54
2022-07-29T07:43:31.268Z,73.44
2022-07-29T07:44:31.268Z,76.05
2022-07-29T07:45:31.305Z,73.94
2022-07-29T07:46:31.233Z,74.31
2022-07-29T07:47:31.227Z,72.60
2022-07-29T07:48:31.234Z,69.19
2022-07-29T07:49:31.299Z,70.46
2022-07-29T07:50:31.231Z,72.47
2022-07-29T07:51:31.182Z,72.03
2022-07-29T07:52:31.163Z,71.43
2022-07-29T07:53:31.172Z,69.62
2022-07-29T07:54:31.160Z,71.20
2022-07-29T07:55:47.435Z,71.39
2022-07-29T07:56:35.273Z,67.49
2022-07-29T07:57:31.112Z,69.26
2022-07-29T07:58:31.124Z,69.35
2022-07-29T07:59:31.093Z,68.85
2022-07-29T08:00:31.075Z,68.52
2022-07-29T08:01:31.145Z,66.12
2022-07-29T08:02:32.094Z,61.81
2022-07-29T08:03:31.045Z,62.78
2022-07-29T08:04:31.053Z,61.65
2022-07-29T08:05:31.011Z,64.36
2022-07-29T08:06:31.008Z,63.22
2022-07-29T08:07:31.000Z,63.02
2022-07-29T08:08:30.982Z,63.89
2022-07-29T08:09:31.143Z,65.99
2022-07-29T08:10:30.985Z,65.59
2022-07-29T08:11:30.964Z,64.39
2022-07-29T08:12:30.940Z,61.46
2022-07-29T08:13:30.935Z,60.27
2022-07-29T08:14:30.953Z,59.83
2022-07-29T08:15:30.934Z,56.94
2022-07-29T08:16:30.984Z,58.91
2022-07-29T08:17:30.881Z,58.98
2022-07-29T08:18:30.871Z,60.15
2022-07-29T08:19:30.873Z,58.92
2022-07-29T08:20:30.841Z,57.50
2022-07-29T08:21:30.837Z,57.47
2022-07-29T08:22:30.877Z,54.16
2022-07-29T08:23:46.180Z,55.23
2022-07-29T08:24:31.827Z,55.30
2022-07-29T08:25:30.811Z,52.09
2022-07-29T08:26:30.786Z,52.76
2022-07-29T08:27:45.273Z,51.35
2022-07-29T08:28:31.769Z,51.20
2022-07-29T08:29:30.759Z,50.76
2022-07-29T08:30:30.744Z,47.56
2022-07-29T08:31:30.812Z,47.91
2022-07-29T08:32:52.495Z,48.95
2022-07-29T08:33:31.695Z,45.96
2022-07-29T08:34:30.706Z,46.81
2022-07-29T08:35:35.045Z,45.60
2022-07-29T08:36:31.670Z,43.98
2022-07-29T08:37:30.653Z,42.08
2022-07-29T08:38:30.642Z,41.67
2022-07-29T08:39:30.647Z,43.52
2022-07-29T08:40:32.109Z,40.94
2022-07-29T08:41:30.615Z,41.53
2022-07-29T08:42:30.597Z,41.22
2022-07-29T08:43:30.599Z,40.51
2022-07-29T08:44:31.315Z,41.59
2022-07-29T08:45:30.682Z,40.09
2022-07-29T08:46:30.552Z,40.09
2022-07-29T08:47:30.559Z,40.31
2022-07-29T08:48:30.533Z,39.70
2022-07-29T08:49:30.564Z,39.58
2022-07-29T08:50:30.513Z,38.52
2022-07-29T08:51:30.511Z,36.83
2022-07-29T08:52:30.501Z,39.66
2022-07-29T08:53:30.488Z,39.45
2022-07-29T08:54:30.505Z,36.49
2022-07-29T08:55:30.453Z,38.45
2022-07-29T08:56:30.442Z,39.01
2022-07-29T08:57:31.207Z,37.74
2022-07-29T08:58:30.430Z,39.61
2022-07-29T08:59:31.375Z,39.51
2022-07-29T09:00:30.406Z,37.96
2022-07-29T09:01:36.482Z,36.60
2022-07-29T09:02:31.378Z,36.24
2022-07-29T09:03:30.430Z,36.87
2022-07-29T09:04:30.368Z,39.54
2022-07-29T09:05:30.362Z,38.10
2022-07-29T09:06:30.342Z,41.08
2022-07-29T09:07:34.584Z,41.61
2022-07-29T09:08:30.331Z,44.89
2022-07-29T09:09:30.305Z,44.51
2022-07-29T09:10:30.292Z,41.97
2022-07-29T09:11:30.278Z,42.19
2022-07-29T09:12:31.926Z,43.87
2022-07-29T09:13:30.273Z,42.48
2022-07-29T09:14:30.242Z,45.52
2022-07-29T09:15:30.235Z,45.72
2022-07-29T09:16:51.946Z,44.83
2022-07-29T09:17:31.252Z,44.51
2022-07-29T09:18:30.971Z,41.46
2022-07-29T09:19:30.213Z,43.98
2022-07-29T09:20:30.177Z,41.99
2022-07-29T09:21:30.163Z,39.48
2022-07-29T09:22:30.161Z,40.35
2022-07-29T09:23:30.142Z,39.82
2022-07-29T09:24:30.163Z,38.42
2022-07-29T09:25:30.117Z,37.01
2022-07-29T09:26:30.118Z,38.35
2022-07-29T09:27:30.119Z,40.39
2022-07-29T09:28:30.100Z,34.38
2022-07-29T09:29:33.292Z,37.39
2022-07-29T09:30:31.803Z,35.99
2022-07-29T09:31:30.170Z,35.28
2022-07-29T09:32:30.048Z,36.34
2022-07-29T09:33:30.054Z,32.24
2022-07-29T09:34:30.060Z,32.52
2022-07-29T09:35:30.017Z,37.21
2022-07-29T09:36:30.001Z,33.92
2022-07-29T09:37:30.009Z,34.03
2022-07-29T09:38:29.991Z,34.62
2022-07-29T09:39:30.001Z,34.05
2022-07-29T09:40:29.958Z,34.94
2022-07-29T09:41:29.957Z,34.94
2022-07-29T09:42:29.945Z,37.61
2022-07-29T09:43:29.931Z,35.06
2022-07-29T09:44:29.940Z,34.41
2022-07-29T09:45:29.911Z,36.98
2022-07-29T09:46:29.992Z,40.01
2022-07-29T09:47:29.885Z,38.68
2022-07-29T09:48:29.883Z,38.70
2022-07-29T09:49:29.983Z,39.21
2022-07-29T09:50:29.857Z,41.78
2022-07-29T09:51:37.797Z,37.97
2022-07-29T09:52:30.825Z,42.02
2022-07-29T09:53:29.826Z,38.60
2022-07-29T09:54:29.831Z,40.78
2022-07-29T09:55:29.793Z,38.04
2022-07-29T09:56:29.813Z,45.16
2022-07-29T09:57:31.208Z,43.78
2022-07-29T09:58:29.763Z,39.86
2022-07-29T09:59:29.777Z,40.25
2022-07-29T10:00:29.858Z,41.65
2022-07-29T10:01:29.837Z,43.52
2022-07-29T10:02:29.726Z,42.76
2022-07-29T10:03:29.822Z,38.90
2022-07-29T10:04:29.719Z,39.70
2022-07-29T10:05:36.019Z,42.38
2022-07-29T10:06:30.705Z,40.11
2022-07-29T10:07:29.675Z,40.70
2022-07-29T10:08:29.662Z,40.88
2022-07-29T10:09:29.677Z,43.80
2022-07-29T10:10:29.631Z,42.38
2022-07-29T10:11:35.494Z,39.87
2022-07-29T10:12:30.618Z,38.07
2022-07-29T10:13:29.619Z,40.29
2022-07-29T10:14:29.595Z,37.60
2022-07-29T10:15:29.584Z,34.74
2022-07-29T10:16:29.589Z,35.62
2022-07-29T10:17:29.589Z,34.33
2022-07-29T10:18:29.552Z,34.41
2022-07-29T10:19:29.561Z,32.92
2022-07-29T10:20:29.529Z,32.23
2022-07-29T10:21:35.816Z,34.59
2022-07-29T10:22:51.901Z,31.55
2022-07-29T10:23:30.488Z,34.70
2022-07-29T10:24:30.505Z,30.98
2022-07-29T10:25:29.477Z,34.11
2022-07-29T10:26:29.471Z,36.86
2022-07-29T10:27:29.464Z,34.90
2022-07-29T10:28:29.438Z,33.53
2022-07-29T10:29:29.449Z,35.97
2022-07-29T10:30:29.420Z,35.76
2022-07-29T10:31:29.465Z,36.16
2022-07-29T10:32:29.401Z,32.71
2022-07-29T10:33:29.390Z,33.20
2022-07-29T10:34:29.402Z,34.96
2022-07-29T10:35:29.364Z,34.08
2022-07-29T10:36:29.363Z,37.41
2022-07-29T10:37:29.344Z,34.28
2022-07-29T10:38:30.339Z,32.63
2022-07-29T10:39:41.709Z,33.04
2022-07-29T10:40:30.315Z,32.54
2022-07-29T10:42:34.310Z,34.83
2022-07-29T10:43:29.871Z,33.97
2022-07-29T10:44:29.289Z,33.12
2022-07-29T10:45:29.261Z,32.15
2022-07-29T10:46:29.295Z,34.61
2022-07-29T10:47:29.241Z,38.07
2022-07-29T10:48:29.317Z,36.80
2022-07-29T10:49:30.753Z,35.53
2022-07-29T10:50:29.216Z,35.74
2022-07-29T10:51:29.210Z,34.86
2022-07-29T10:52:30.244Z,38.60
2022-07-29T10:53:33.867Z,35.66
2022-07-29T10:54:29.179Z,37.34
2022-07-29T10:55:29.159Z,39.79
2022-07-29T10:56:29.137Z,36.15
2022-07-29T10:58:30.116Z,38.51
2022-07-29T10:59:32.436Z,36.65
2022-07-29T11:00:30.098Z,38.51
2022-07-29T11:01:37.044Z,38.14
2022-07-29T11:02:41.770Z,43.64
2022-07-29T11:03:30.141Z,40.11
2022-07-29T11:04:29.070Z,40.00
2022-07-29T11:05:31.927Z,37.74
2022-07-29T11:06:29.034Z,36.66
2022-07-29T11:07:42.622Z,38.04
2022-07-29T11:08:30.010Z,36.86
2022-07-29T11:09:37.502Z,37.24
2022-07-29T11:10:31.348Z,39.81
2022-07-29T11:11:29.851Z,36.86
2022-07-29T11:12:28.963Z,36.46
2022-07-29T11:13:28.950Z,36.68
2022-07-29T11:14:29.959Z,38.65
2022-07-29T11:15:31.630Z,36.50
2022-07-29T11:16:28.922Z,37.17
2022-07-29T11:17:37.510Z,37.88
2022-07-29T11:18:29.898Z,36.90
2022-07-29T11:19:30.572Z,36.99
2022-07-29T11:20:28.884Z,44.57
2022-07-29T11:21:28.856Z,36.60
2022-07-29T11:22:29.845Z,38.37
2022-07-29T11:23:33.709Z,40.35
2022-07-29T11:24:30.170Z,36.60
2022-07-29T11:25:50.221Z,40.37
2022-07-29T11:26:29.827Z,43.33
2022-07-29T11:27:28.854Z,39.58
2022-07-29T11:28:28.783Z,36.93
2022-07-29T11:29:28.786Z,39.60
2022-07-29T11:30:28.763Z,39.28
2022-07-29T11:31:28.748Z,41.87
2022-07-29T11:32:29.390Z,43.73
2022-07-29T11:33:54.885Z,42.05
2022-07-29T11:34:29.884Z,40.56
2022-07-29T11:35:38.032Z,40.55
2022-07-29T11:36:29.691Z,38.87
2022-07-29T11:37:28.948Z,39.26
2022-07-29T11:38:29.294Z,38.85
2022-07-29T11:39:36.787Z,37.96
2022-07-29T11:40:29.657Z,42.79
2022-07-29T11:41:28.641Z,40.13
2022-07-29T11:42:34.448Z,39.73
2022-07-29T11:43:29.613Z,43.48
2022-07-29T11:44:28.630Z,39.64
2022-07-29T11:45:41.380Z,42.68
2022-07-29T11:46:29.583Z,39.92
2022-07-29T11:47:28.594Z,40.51
2022-07-29T11:48:32.112Z,38.04
2022-07-29T11:50:29.535Z,43.76
2022-07-29T11:51:32.938Z,38.54
2022-07-29T11:52:28.514Z,37.85
2022-07-29T11:53:28.944Z,40.01
2022-07-29T11:54:28.517Z,39.03
2022-07-29T11:55:32.351Z,43.46
2022-07-29T11:56:29.469Z,40.39
2022-07-29T11:57:36.113Z,39.60
2022-07-29T11:58:29.465Z,38.12
2022-07-29T11:59:33.453Z,39.60
2022-07-29T12:00:29.422Z,38.42
2022-07-29T12:01:28.411Z,39.70
2022-07-29T12:02:37.231Z,38.62
2022-07-29T12:04:29.402Z,41.69
2022-07-29T12:05:36.124Z,41.69
2022-07-29T12:06:29.360Z,46.30
2022-07-29T12:07:02.108Z,38.83
2022-07-29T12:07:34.623Z,46.79
2022-07-29T12:08:29.337Z,43.84
2022-07-29T12:09:28.354Z,44.33
2022-07-29T12:10:30.029Z,40.69
2022-07-29T12:11:28.304Z,45.31
2022-07-29T12:12:28.296Z,42.26
2022-07-29T12:13:37.002Z,41.57
2022-07-29T12:14:29.279Z,42.36
2022-07-29T12:15:31.492Z,41.75
2022-07-29T12:16:29.943Z,43.32
2022-07-29T12:17:30.523Z,44.01
2022-07-29T12:18:28.235Z,41.35
2022-07-29T12:19:28.226Z,41.25
2022-07-29T12:20:28.206Z,42.34
2022-07-29T12:21:29.094Z,41.45
2022-07-29T12:22:28.183Z,40.08
2022-07-29T12:23:29.430Z,41.65
2022-07-29T12:24:29.174Z,45.49
2022-07-29T12:25:32.368Z,43.91
2022-07-29T12:26:28.139Z,41.45
2022-07-29T12:27:29.278Z,41.45
2022-07-29T12:28:28.227Z,41.06
2022-07-29T12:29:33.541Z,43.71
2022-07-29T12:30:29.092Z,41.65
2022-07-29T12:31:43.493Z,43.82
2022-07-29T12:32:29.107Z,44.21
2022-07-29T12:33:28.055Z,44.40
2022-07-29T12:34:28.074Z,44.40
2022-07-29T12:35:28.037Z,41.94
2022-07-29T12:36:28.036Z,43.52
2022-07-29T12:37:40.590Z,43.99
2022-07-29T12:38:29.014Z,42.91
2022-07-29T12:39:28.012Z,44.19
2022-07-29T12:40:27.985Z,41.83
2022-07-29T12:41:27.974Z,41.63
2022-07-29T12:42:27.957Z,40.16
2022-07-29T12:43:27.951Z,41.43
2022-07-29T12:44:27.956Z,41.43
2022-07-29T12:45:27.945Z,41.24
2022-07-29T12:46:27.987Z,41.93
2022-07-29T12:47:27.902Z,43.89
2022-07-29T12:48:27.907Z,41.93
2022-07-29T12:49:27.932Z,42.52
2022-07-29T12:50:27.870Z,42.24
2022-07-29T12:51:27.862Z,42.63
2022-07-29T12:52:27.848Z,45.29
2022-07-29T12:53:27.841Z,42.16
2022-07-29T12:54:27.845Z,41.96
2022-07-29T12:55:27.821Z,44.03